Hlavní strana
METAR-TAF:

METAR-TAF

Letiště :

Pointe-Noire, Kongo

zeměpisná šířka: 04-49S, zeměpisná délka: 011-54E, výška: 17 m

Aktuální stav počasí

Zpráva byla vytvořena před 24 minutami, v 16:00 UTC
Jižní vítr 13 kt
Teplota 25°C
Vlhkost vzduchu 89%
Tlak 1010 hPa
Viditelnost 10 km a více
Polojasno ve výšce 1300 ft
Skoro jasno ve výšce 3000 ft, Cumulonimbus.

METAR: FCPP 211600Z 19013KT 9999 SCT013 FEW030CB 25/23 Q1010 NOSIG

Čas: 17:24 (16:24 UTC)

Předpověď počasí

Zpráva byla vytvořena před 5 hodinami a 24 minutami, v 11:00 UTC
Předpověď platná od 21 v 12 UTC do 22 v 12 UTC
Jižní vítr 8 kt
Viditelnost 10 km a více
Polojasno ve výšce 1500 ft
Změna
od 21 v 13 UTC do 21 v 15 UTC
Polojasno ve výšce 1700 ft
Skoro jasno ve výšce 3000 ft, Cumulonimbus.
Dočasný
od 21 v 18 UTC do 21 v 21 UTC
bouřka
Změna
od 21 v 22 UTC do 21 v 23 UTC
Polojasno ve výšce 1300 ft

TAF: FCPP 211100Z 2112/2212 18008KT 9999 SCT015 BECMG 2113/2115 SCT017 FEW030CB TEMPO 2118/2121 TS BECMG 2122/2123 SCT013

Stav a předpovědi počasí z více než 4 000 letišť (zprávy METAR a TAF).

Červené a žluté tečky na mapě představují dostupné meteorologické stanice.

Když kurzor umístíte na tečku, zobrazí se název stanice.

Pak kliknutím zobrazíte stav a předpověď počasí.

Chcete-li změnit mapu, kliknutím na zelené tlačítko se znaménkem +mapu přiblížíte, kliknutím na zelené tlačítko se znaménkem – mapu oddálíte a kliknutím na zelené šipky přejdete na sousední mapy.


METAR-TAF: